Time;durP1;ratioP1;P1;durP2;ratioP2;P2;SDS_P1;SDS_P2;PMS_P1;PMS_P2;Temp;Humidity;BMP_temperature;BMP_pressure;BME280_temperature;BME280_humidity;BME280_pressure;Samples;Min_cycle;Max_cycle;Signal;HPM_P1;HPM_P2
2023/04/13 00:00:23;;;;;;;3.17;1.40;;;;;;;11.11;65.46;99307.56;4982623;28;20092;-41
2023/04/13 00:02:52;;;;;;;3.55;1.30;;;;;;;11.06;65.90;99309.38;4982706;28;20037;-38
2023/04/13 00:05:19;;;;;;;3.45;1.20;;;;;;;11.43;65.05;99302.75;4980943;28;20181;-41
2023/04/13 00:07:44;;;;;;;2.78;1.30;;;;;;;10.87;66.50;99306.16;4982782;28;20089;-39
2023/04/13 00:10:10;;;;;;;2.60;1.40;;;;;;;11.33;65.55;99303.78;4980328;28;20034;-40
2023/04/13 00:12:36;;;;;;;3.53;1.33;;;;;;;11.28;66.07;99308.22;4983960;28;20329;-40
2023/04/13 00:15:03;;;;;;;3.08;1.40;;;;;;;11.31;65.78;99309.03;4981149;28;20031;-42
2023/04/13 00:17:28;;;;;;;3.63;1.40;;;;;;;11.47;65.82;99303.56;4985663;28;20346;-41
2023/04/13 00:19:56;;;;;;;2.35;1.30;;;;;;;11.52;65.31;99300.03;4984985;28;20037;-40
2023/04/13 00:22:23;;;;;;;2.20;1.20;;;;;;;11.23;66.64;99308.25;4980504;28;20038;-40
2023/04/13 00:24:48;;;;;;;2.67;1.25;;;;;;;11.02;67.01;99305.09;4983917;28;20572;-39
2023/04/13 00:27:14;;;;;;;3.75;1.20;;;;;;;11.05;67.16;99313.72;4981700;28;20121;-40
2023/04/13 00:29:39;;;;;;;3.40;1.10;;;;;;;11.23;66.19;99315.22;4988302;28;20038;-40
2023/04/13 00:32:04;;;;;;;2.75;1.10;;;;;;;11.36;65.67;99315.03;4980992;28;20038;-44
2023/04/13 00:34:30;;;;;;;2.72;1.00;;;;;;;11.21;66.75;99317.00;4983859;28;20501;-43
2023/04/13 00:36:55;;;;;;;1.77;0.80;;;;;;;11.17;66.29;99316.16;4985230;28;20050;-41
2023/04/13 00:39:22;;;;;;;2.00;0.82;;;;;;;11.00;66.30;99318.16;4986856;28;20473;-40
2023/04/13 00:41:49;;;;;;;2.13;0.80;;;;;;;11.21;65.73;99325.69;4990572;28;20053;-41
2023/04/13 00:44:18;;;;;;;3.35;0.70;;;;;;;11.16;66.15;99330.09;4987758;28;20544;-41
2023/04/13 00:46:47;;;;;;;1.83;0.70;;;;;;;10.92;66.54;99343.44;4983204;28;20080;-42
2023/04/13 00:49:17;;;;;;;3.55;0.80;;;;;;;10.64;67.79;99353.34;4981382;28;20113;-40
2023/04/13 00:51:44;;;;;;;1.77;0.77;;;;;;;10.81;67.96;99351.41;4984145;28;20046;-40
2023/04/13 00:54:14;;;;;;;2.58;0.80;;;;;;;10.76;68.37;99357.56;4980631;28;20034;-40
2023/04/13 00:56:42;;;;;;;3.50;0.95;;;;;;;10.67;69.38;99349.88;4983942;28;20105;-39
2023/04/13 00:59:10;;;;;;;3.83;0.95;;;;;;;10.74;69.76;99352.34;4980355;28;20041;-40
2023/04/13 01:01:44;;;;;;;2.22;0.80;;;;;;;10.82;68.87;99355.75;4985185;28;20121;-39
2023/04/13 01:04:13;;;;;;;3.55;0.90;;;;;;;11.02;68.42;99358.13;4979685;28;20109;-40
2023/04/13 01:06:43;;;;;;;2.60;1.10;;;;;;;10.57;70.44;99368.19;4986821;28;20350;-41
2023/04/13 01:09:17;;;;;;;3.00;1.20;;;;;;;10.44;70.62;99363.97;4984972;28;20046;-40
2023/04/13 01:11:52;;;;;;;2.55;1.17;;;;;;;10.61;70.79;99366.44;4990543;28;20039;-39
2023/04/13 01:14:26;;;;;;;3.95;1.17;;;;;;;10.26;71.03;99371.97;4983752;28;20125;-40
2023/04/13 01:16:56;;;;;;;5.50;1.25;;;;;;;10.69;70.33;99375.00;4985970;28;20057;-40
2023/04/13 01:19:34;;;;;;;3.58;1.20;;;;;;;10.55;70.63;99385.56;4990197;28;20034;-39
2023/04/13 01:22:02;;;;;;;3.42;1.00;;;;;;;10.24;72.35;99407.59;4990765;28;20097;-39
2023/04/13 01:24:47;;;;;;;3.80;1.23;;;;;;;10.69;70.34;99392.38;4987142;28;20035;-39
2023/04/13 01:27:19;;;;;;;7.22;1.30;;;;;;;10.33;71.93;99409.25;4983450;28;20100;-39
2023/04/13 01:29:46;;;;;;;3.10;1.05;;;;;;;10.23;71.94;99410.22;4984975;28;20038;-40
2023/04/13 01:32:14;;;;;;;3.20;1.10;;;;;;;10.75;70.87;99410.56;4981862;28;20421;-43
2023/04/13 01:34:39;;;;;;;4.38;1.20;;;;;;;10.67;70.49;99417.63;4986201;28;20027;-40
2023/04/13 01:37:05;;;;;;;6.72;1.20;;;;;;;10.51;70.56;99419.50;4985508;28;20040;-40
2023/04/13 01:39:32;;;;;;;3.75;0.90;;;;;;;10.58;69.90;99421.16;4988799;28;20038;-41
2023/04/13 01:41:58;;;;;;;4.65;1.10;;;;;;;10.61;69.14;99430.72;4994320;28;20038;-41
2023/04/13 01:44:26;;;;;;;4.00;1.13;;;;;;;10.50;69.06;99428.19;4991532;28;20031;-41
2023/04/13 01:46:59;;;;;;;6.20;1.00;;;;;;;10.28;70.14;99440.56;4994796;28;20105;-42
2023/04/13 01:49:26;;;;;;;4.88;1.00;;;;;;;10.50;69.19;99449.03;4987327;28;20034;-40
2023/04/13 01:51:55;;;;;;;4.07;0.90;;;;;;;10.57;68.61;99437.69;4986360;28;20444;-40
2023/04/13 01:54:24;;;;;;;4.93;0.80;;;;;;;10.26;69.08;99444.91;4983119;28;20031;-43
2023/04/13 01:56:50;;;;;;;6.20;1.00;;;;;;;10.49;68.59;99447.34;4985943;28;20069;-40
2023/04/13 01:59:15;;;;;;;4.65;1.23;;;;;;;10.23;69.21;99446.69;4982264;28;20053;-41
2023/04/13 02:01:41;;;;;;;4.97;1.00;;;;;;;10.36;68.74;99456.13;4985671;28;20041;-41
2023/04/13 02:04:08;;;;;;;4.85;1.00;;;;;;;10.12;69.56;99459.75;4982793;28;20030;-40
2023/04/13 02:06:33;;;;;;;8.25;1.38;;;;;;;10.35;68.64;99462.22;4985870;28;20573;-39
2023/04/13 02:08:59;;;;;;;7.70;1.30;;;;;;;10.20;69.30;99464.91;4982530;28;20042;-39
2023/04/13 02:11:24;;;;;;;7.30;1.25;;;;;;;10.35;68.56;99462.22;4986286;28;20417;-40
2023/04/13 02:13:50;;;;;;;4.88;1.17;;;;;;;10.24;69.15;99469.25;4985802;28;20069;-41
2023/04/13 02:16:16;;;;;;;5.85;1.10;;;;;;;10.37;68.10;99466.50;4985079;28;20026;-41
2023/04/13 02:18:41;;;;;;;5.95;0.80;;;;;;;10.20;68.53;99473.59;4989479;28;20098;-46
2023/04/13 02:21:08;;;;;;;7.55;1.10;;;;;;;10.28;69.20;99473.56;4986898;28;20500;-40
2023/04/13 02:23:35;;;;;;;3.33;0.80;;;;;;;10.50;68.06;99477.69;4987602;28;20066;-41
2023/04/13 02:26:01;;;;;;;8.48;1.00;;;;;;;10.34;68.88;99484.78;4984016;28;20117;-43
2023/04/13 02:28:29;;;;;;;3.53;1.05;;;;;;;10.30;68.65;99484.84;4989432;28;20098;-40
2023/04/13 02:30:55;;;;;;;3.47;0.98;;;;;;;10.35;68.42;99486.53;4990133;28;20093;-40
2023/04/13 02:33:21;;;;;;;9.27;1.10;;;;;;;10.14;69.18;99494.44;4989236;28;20094;-40
2023/04/13 02:35:47;;;;;;;5.05;1.20;;;;;;;10.23;68.65;99491.81;4994353;28;20042;-46
2023/04/13 02:38:14;;;;;;;4.90;1.08;;;;;;;10.48;67.75;99502.94;4989274;28;20038;-42
2023/04/13 02:40:40;;;;;;;5.80;0.98;;;;;;;10.24;68.52;99510.91;4987316;28;20382;-40
2023/04/13 02:43:05;;;;;;;4.95;0.90;;;;;;;10.46;68.51;99507.28;4980150;28;20105;-41
2023/04/13 02:45:31;;;;;;;5.20;0.90;;;;;;;10.46;67.80;99496.84;4985311;28;20040;-39
2023/04/13 02:47:57;;;;;;;8.43;1.45;;;;;;;10.63;68.42;99505.38;4984055;28;20030;-42
2023/04/13 02:50:22;;;;;;;6.55;1.05;;;;;;;10.35;68.43;99509.97;4982669;28;20443;-41
2023/04/13 02:52:48;;;;;;;8.73;1.10;;;;;;;10.31;68.19;99516.06;4985183;28;20034;-41
2023/04/13 02:55:13;;;;;;;5.53;1.00;;;;;;;10.60;68.01;99513.25;4981545;28;20034;-37
2023/04/13 02:57:41;;;;;;;4.22;1.05;;;;;;;10.68;67.23;99523.56;4985593;28;20122;-41
2023/04/13 03:00:09;;;;;;;7.30;1.23;;;;;;;10.90;66.48;99526.00;4982134;28;20040;-41
2023/04/13 03:02:38;;;;;;;6.22;1.10;;;;;;;10.92;66.60;99525.97;5005888;22;20046;-40
2023/04/13 03:05:07;;;;;;;5.78;1.27;;;;;;;10.85;66.16;99533.00;5001216;28;20400;-40
2023/04/13 03:07:34;;;;;;;5.55;1.33;;;;;;;10.52;67.18;99534.16;5004909;28;20369;-42
2023/04/13 03:10:04;;;;;;;6.07;1.20;;;;;;;10.64;66.26;99541.00;5001257;28;20493;-41
2023/04/13 03:12:32;;;;;;;5.88;1.52;;;;;;;10.63;66.86;99541.88;5006772;28;20057;-41
2023/04/13 03:15:05;;;;;;;9.07;1.40;;;;;;;10.37;66.96;99544.66;5006505;28;20488;-41
2023/04/13 03:17:31;;;;;;;7.68;1.40;;;;;;;10.64;66.27;99553.16;5002868;28;20045;-42
2023/04/13 03:19:57;;;;;;;5.43;1.30;;;;;;;10.93;64.87;99552.03;5003494;28;20030;-45
2023/04/13 03:22:22;;;;;;;6.38;1.60;;;;;;;10.39;66.42;99558.56;4999641;28;20053;-41
2023/04/13 03:24:48;;;;;;;7.88;1.70;;;;;;;10.35;65.98;99575.09;5002911;28;20045;-40
2023/04/13 03:27:13;;;;;;;9.93;2.05;;;;;;;10.22;66.01;99562.16;4999142;28;20109;-45
2023/04/13 03:29:38;;;;;;;5.45;1.40;;;;;;;10.43;65.17;99564.63;5002666;28;20049;-42
2023/04/13 03:32:04;;;;;;;5.32;1.45;;;;;;;10.89;64.47;99579.03;5000358;28;20033;-44
2023/04/13 03:34:30;;;;;;;3.85;1.40;;;;;;;10.48;64.74;99578.47;5002859;28;20401;-41
2023/04/13 03:36:55;;;;;;;6.90;1.40;;;;;;;10.68;64.38;99583.53;5003014;28;20041;-42
2023/04/13 03:39:21;;;;;;;8.07;1.35;;;;;;;10.52;64.25;99578.44;4999333;28;20038;-44
2023/04/13 03:41:46;;;;;;;6.20;1.45;;;;;;;10.51;63.62;99583.66;5001233;28;20034;-41
2023/04/13 03:44:11;;;;;;;10.52;1.50;;;;;;;10.56;64.14;99594.91;4999161;28;20034;-41
2023/04/13 03:46:37;;;;;;;11.02;1.70;;;;;;;10.97;63.41;99592.88;5002861;28;20034;-41
2023/04/13 03:49:07;;;;;;;6.05;1.58;;;;;;;10.81;64.16;99601.69;4998806;28;20427;-41
2023/04/13 03:51:33;;;;;;;9.18;1.60;;;;;;;10.86;63.18;99605.09;5002597;28;20036;-41
2023/04/13 03:53:58;;;;;;;5.72;1.38;;;;;;;10.90;64.04;99609.44;4999391;28;20026;-41
2023/04/13 03:56:24;;;;;;;7.15;1.50;;;;;;;10.96;62.71;99611.13;5001551;28;20038;-40
2023/04/13 03:58:50;;;;;;;6.15;1.17;;;;;;;10.70;63.14;99615.66;5002422;28;20396;-44
2023/04/13 04:01:15;;;;;;;9.15;1.40;;;;;;;10.66;62.09;99613.97;4999244;28;20498;-40
2023/04/13 04:03:40;;;;;;;6.45;1.13;;;;;;;10.49;62.38;99609.72;5002532;28;20038;-45
2023/04/13 04:06:06;;;;;;;5.05;1.38;;;;;;;10.76;61.57;99608.66;4999220;28;20432;-41
2023/04/13 04:08:32;;;;;;;6.18;1.33;;;;;;;10.81;61.63;99614.72;5002462;28;20046;-44
2023/04/13 04:10:57;;;;;;;5.82;1.30;;;;;;;10.63;62.03;99620.06;5002484;28;20034;-41
2023/04/13 04:13:22;;;;;;;7.15;1.40;;;;;;;10.66;62.42;99616.56;4999438;28;20484;-43
2023/04/13 04:15:48;;;;;;;4.65;1.30;;;;;;;10.64;61.72;99615.72;5002492;28;20088;-41
2023/04/13 04:18:13;;;;;;;6.97;1.30;;;;;;;10.47;62.32;99619.31;4999242;28;20034;-41
2023/04/13 04:20:39;;;;;;;7.43;1.10;;;;;;;10.70;61.65;99610.47;5002570;28;20133;-41
2023/04/13 04:23:04;;;;;;;5.97;1.35;;;;;;;10.71;61.33;99615.66;4999623;28;20308;-42
2023/04/13 04:25:32;;;;;;;9.25;1.60;;;;;;;10.48;61.10;99610.63;5001878;28;20034;-42
2023/04/13 04:28:01;;;;;;;7.57;1.40;;;;;;;10.36;61.76;99612.44;5002164;28;20125;-43
2023/04/13 04:30:28;;;;;;;6.40;1.40;;;;;;;10.80;61.25;99622.53;4997515;28;20030;-42
2023/04/13 04:32:54;;;;;;;5.60;1.55;;;;;;;10.75;62.40;99625.19;5002234;28;20124;-43
2023/04/13 04:35:20;;;;;;;7.60;1.58;;;;;;;10.39;64.28;99641.94;4999064;28;20041;-44
2023/04/13 04:37:48;;;;;;;3.63;1.30;;;;;;;10.81;64.24;99637.31;5002275;28;20412;-45
2023/04/13 04:40:14;;;;;;;9.38;1.73;;;;;;;10.28;66.36;99638.53;4996646;28;20069;-43
2023/04/13 04:42:41;;;;;;;6.78;1.45;;;;;;;10.10;67.20;99631.63;5001503;28;20044;-45
2023/04/13 04:45:07;;;;;;;6.53;1.30;;;;;;;10.81;65.60;99642.53;4998605;28;20053;-43
2023/04/13 04:47:40;;;;;;;7.43;1.23;;;;;;;10.89;65.71;99648.56;5003510;28;20101;-44
2023/04/13 04:50:08;;;;;;;7.03;1.30;;;;;;;10.78;66.41;99650.38;5005596;28;20061;-41
2023/04/13 04:52:33;;;;;;;5.78;1.50;;;;;;;10.52;68.07;99656.63;5010125;28;20462;-41
2023/04/13 04:54:59;;;;;;;4.93;1.15;;;;;;;10.33;68.63;99664.53;4998199;28;20026;-40
2023/04/13 04:57:24;;;;;;;2.85;1.00;;;;;;;10.18;67.83;99662.03;5001567;28;20030;-41
2023/04/13 04:59:50;;;;;;;5.07;1.20;;;;;;;10.15;68.36;99668.06;5001449;28;20450;-42
2023/04/13 05:02:16;;;;;;;4.85;1.10;;;;;;;10.42;67.59;99670.59;4998248;28;20037;-42
2023/04/13 05:04:41;;;;;;;4.30;1.02;;;;;;;10.56;67.39;99675.69;5005770;28;20034;-41
2023/04/13 05:07:08;;;;;;;5.50;1.00;;;;;;;10.40;68.37;99679.28;5002274;28;20116;-42
2023/04/13 05:09:33;;;;;;;5.90;1.20;;;;;;;10.61;67.59;99678.31;5004371;28;20439;-40
2023/04/13 05:11:59;;;;;;;3.53;1.17;;;;;;;10.57;67.92;99677.44;4998450;28;20114;-40
2023/04/13 05:14:24;;;;;;;4.38;1.20;;;;;;;10.65;68.57;99680.88;5001730;28;20026;-45
2023/04/13 05:16:50;;;;;;;8.02;1.20;;;;;;;10.85;68.25;99679.00;5001746;28;20741;-42
2023/04/13 05:19:15;;;;;;;4.00;1.30;;;;;;;10.65;69.09;99682.59;4998056;28;20033;-41
2023/04/13 05:21:41;;;;;;;4.78;1.10;;;;;;;10.35;69.42;99689.72;5002566;28;20332;-41
2023/04/13 05:24:06;;;;;;;3.30;1.10;;;;;;;10.65;68.95;99687.81;5001233;28;20117;-40
2023/04/13 05:26:33;;;;;;;4.93;1.27;;;;;;;10.85;68.04;99693.78;5003548;28;20034;-47
2023/04/13 05:28:58;;;;;;;5.47;1.10;;;;;;;10.53;68.55;99688.75;4999886;28;20041;-40
2023/04/13 05:31:24;;;;;;;5.25;1.20;;;;;;;10.62;67.62;99699.13;5002481;28;20037;-41
2023/04/13 05:33:49;;;;;;;3.78;1.10;;;;;;;11.01;66.79;99700.63;5004278;28;20372;-41
2023/04/13 05:36:15;;;;;;;5.68;1.08;;;;;;;11.07;66.78;99697.09;5002612;28;20045;-45
2023/04/13 05:38:41;;;;;;;4.65;1.13;;;;;;;11.00;67.18;99704.09;5003001;28;20037;-41
2023/04/13 05:41:07;;;;;;;4.90;1.35;;;;;;;10.35;69.03;99710.56;4999060;28;20041;-41
2023/04/13 05:43:35;;;;;;;6.25;1.27;;;;;;;11.05;66.94;99710.13;5001665;28;20030;-43
2023/04/13 05:46:01;;;;;;;9.43;1.60;;;;;;;10.76;67.95;99710.34;4998013;28;20389;-43
2023/04/13 05:48:26;;;;;;;8.65;1.90;;;;;;;11.08;67.35;99730.13;5001039;28;20042;-43
2023/04/13 05:50:57;;;;;;;8.48;1.98;;;;;;;10.79;67.72;99725.97;5000962;28;20034;-44
2023/04/13 05:53:22;;;;;;;7.75;1.40;;;;;;;10.95;66.58;99734.56;4997325;28;20048;-43
2023/04/13 05:55:47;;;;;;;5.57;1.70;;;;;;;10.88;66.81;99730.25;4998818;28;20038;-43
2023/04/13 05:58:13;;;;;;;8.95;1.60;;;;;;;11.13;65.42;99739.66;4997609;28;20030;-42
2023/04/13 06:00:38;;;;;;;7.30;1.23;;;;;;;11.24;65.26;99740.44;5000974;28;20037;-42
2023/04/13 06:03:04;;;;;;;10.80;1.70;;;;;;;11.53;65.34;99752.38;4997554;28;20034;-42
2023/04/13 06:05:31;;;;;;;8.98;1.88;;;;;;;11.16;66.12;99750.06;5000781;28;20038;-41
2023/04/13 06:07:58;;;;;;;10.48;1.80;;;;;;;11.48;66.02;99757.66;5001251;28;20045;-42
2023/04/13 06:10:24;;;;;;;9.90;1.70;;;;;;;11.44;65.60;99762.91;4997901;28;20032;-42
2023/04/13 06:12:51;;;;;;;9.43;1.75;;;;;;;12.01;64.41;99769.41;5001329;28;20053;-43
2023/04/13 06:15:17;;;;;;;7.82;1.88;;;;;;;11.13;64.62;99786.59;5000826;28;20037;-42
2023/04/13 06:17:42;;;;;;;12.45;1.95;;;;;;;11.36;66.04;99783.84;5003799;28;20042;-43
2023/04/13 06:20:09;;;;;;;7.78;1.20;;;;;;;11.21;65.02;99782.22;5000791;28;20030;-39
2023/04/13 06:22:35;;;;;;;7.78;1.50;;;;;;;10.76;66.72;99792.91;5005604;28;20034;-40
2023/04/13 06:25:00;;;;;;;7.57;1.40;;;;;;;10.73;66.53;99792.91;5001171;28;20045;-41
2023/04/13 06:27:27;;;;;;;10.45;1.65;;;;;;;11.39;64.63;99795.13;5006220;28;20045;-42
2023/04/13 06:29:52;;;;;;;5.65;1.40;;;;;;;11.34;64.92;99788.22;5005924;28;20038;-42
2023/04/13 06:32:18;;;;;;;11.15;1.55;;;;;;;11.45;65.09;99783.78;5004460;28;20387;-44
2023/04/13 06:34:44;;;;;;;8.88;1.75;;;;;;;11.48;65.14;99788.09;5007501;28;20349;-43
2023/04/13 06:37:10;;;;;;;10.70;2.00;;;;;;;11.08;65.64;99831.84;5001690;28;20425;-42
2023/04/13 06:39:36;;;;;;;8.40;1.38;;;;;;;10.64;69.11;99834.66;5004213;28;20030;-40
2023/04/13 06:42:02;;;;;;;6.20;1.63;;;;;;;10.27;71.09;99839.09;5000456;28;20130;-43
2023/04/13 06:44:28;;;;;;;9.13;1.83;;;;;;;10.29;71.68;99853.00;5003632;28;20362;-40
2023/04/13 06:46:54;;;;;;;9.75;1.85;;;;;;;10.32;71.69;99842.53;5003348;28;20036;-39
2023/04/13 06:49:19;;;;;;;12.13;1.98;;;;;;;10.53;71.56;99845.13;4999955;28;20153;-40
2023/04/13 06:51:45;;;;;;;10.40;1.88;;;;;;;10.52;72.15;99844.25;5003827;28;20038;-42
2023/04/13 06:54:10;;;;;;;11.68;1.90;;;;;;;10.83;71.50;99844.13;4999726;28;20061;-42
2023/04/13 06:56:35;;;;;;;13.07;1.80;;;;;;;11.12;70.30;99834.44;5004076;28;20034;-41
2023/04/13 06:59:01;;;;;;;10.63;2.00;;;;;;;10.72;70.48;99853.75;4999324;28;20073;-42
2023/04/13 07:01:26;;;;;;;10.70;2.10;;;;;;;10.97;69.40;99852.78;5003398;28;20404;-44
2023/04/13 07:03:52;;;;;;;14.25;1.98;;;;;;;10.69;69.37;99856.34;5002910;28;20042;-40
2023/04/13 07:06:19;;;;;;;12.75;2.28;;;;;;;11.04;68.05;99854.47;5000068;28;20046;-41
2023/04/13 07:08:45;;;;;;;8.38;1.92;;;;;;;11.36;67.78;99859.50;5003849;28;20042;-43
2023/04/13 07:11:11;;;;;;;12.52;2.13;;;;;;;11.95;64.68;99864.38;5004543;28;20108;-41
2023/04/13 07:13:36;;;;;;;9.68;1.95;;;;;;;12.19;65.07;99868.50;5007954;28;20589;-41
2023/04/13 07:16:02;;;;;;;10.27;2.10;;;;;;;11.91;64.64;99873.09;5000643;28;20171;-43
2023/04/13 07:18:28;;;;;;;15.85;1.98;;;;;;;12.09;63.90;99877.28;5001543;28;20033;-42
2023/04/13 07:20:53;;;;;;;14.07;2.40;;;;;;;11.88;64.56;99880.97;5003172;28;20030;-43
2023/04/13 07:23:18;;;;;;;15.15;2.38;;;;;;;11.58;64.25;99891.59;4999296;28;20133;-42
2023/04/13 07:25:43;;;;;;;11.70;1.77;;;;;;;11.72;64.21;99887.97;5003106;28;20038;-42
2023/04/13 07:28:09;;;;;;;12.10;2.00;;;;;;;12.04;62.92;99895.63;4999249;28;20034;-43
2023/04/13 07:30:34;;;;;;;9.85;2.00;;;;;;;11.83;61.83;99905.38;5003282;28;20185;-42
2023/04/13 07:33:00;;;;;;;14.85;2.05;;;;;;;11.46;63.33;99910.78;4998754;28;20523;-39
2023/04/13 07:35:25;;;;;;;9.88;2.00;;;;;;;11.78;62.32;99906.25;5003424;28;20034;-44
2023/04/13 07:37:51;;;;;;;11.90;2.22;;;;;;;11.99;61.51;99918.31;5003219;28;20038;-42
2023/04/13 07:40:17;;;;;;;13.13;2.30;;;;;;;11.89;62.34;99910.56;4998844;28;20033;-42
2023/04/13 07:42:44;;;;;;;15.38;2.10;;;;;;;11.67;62.84;99925.44;5002880;28;20026;-40
2023/04/13 07:45:09;;;;;;;10.88;2.10;;;;;;;11.61;60.49;99909.81;5000081;28;20451;-42
2023/04/13 07:47:35;;;;;;;13.90;2.08;;;;;;;11.44;61.29;99940.38;5003283;28;20030;-41
2023/04/13 07:50:01;;;;;;;11.70;2.25;;;;;;;11.27;61.03;99933.50;4999147;28;20038;-41
2023/04/13 07:52:27;;;;;;;11.35;2.40;;;;;;;11.73;60.71;99956.75;5003895;28;20515;-45
2023/04/13 07:54:53;;;;;;;15.98;2.47;;;;;;;11.94;60.28;99959.28;5005328;28;20057;-45
2023/04/13 07:57:20;;;;;;;12.70;1.70;;;;;;;11.68;60.40;99969.84;5000054;28;20052;-44
2023/04/13 07:59:46;;;;;;;11.27;2.17;;;;;;;11.73;59.95;99975.91;5007991;28;20044;-42
2023/04/13 08:02:11;;;;;;;10.48;1.98;;;;;;;11.89;59.44;99966.28;5002759;28;20113;-42
2023/04/13 08:04:36;;;;;;;15.70;2.30;;;;;;;11.89;59.22;99991.53;5002301;28;20038;-39
2023/04/13 08:07:06;;;;;;;10.57;2.08;;;;;;;11.91;58.47;99980.16;4999331;28;20095;-42
2023/04/13 08:09:35;;;;;;;11.98;2.03;;;;;;;11.72;59.44;99992.44;5001911;28;20030;-40
2023/04/13 08:12:02;;;;;;;8.80;1.90;;;;;;;11.81;59.21;99988.94;4998867;28;20404;-42
2023/04/13 08:14:27;;;;;;;10.85;2.03;;;;;;;11.71;58.54;100001.13;5001873;28;20060;-43
2023/04/13 08:16:52;;;;;;;10.88;2.00;;;;;;;12.33;57.49;100004.25;5001981;28;20034;-42
2023/04/13 08:19:17;;;;;;;10.95;2.10;;;;;;;12.18;57.96;99994.81;4998532;28;20657;-44
2023/04/13 08:21:43;;;;;;;11.52;2.00;;;;;;;11.83;57.60;100008.09;5000877;28;20042;-45
2023/04/13 08:24:08;;;;;;;9.70;1.80;;;;;;;11.93;57.62;100014.13;4998320;28;20655;-43
2023/04/13 08:26:34;;;;;;;12.55;2.00;;;;;;;12.01;57.70;100007.13;5002669;28;20041;-40
2023/04/13 08:28:59;;;;;;;8.63;1.88;;;;;;;12.16;57.23;100022.69;4999055;28;20036;-39
2023/04/13 08:31:24;;;;;;;9.82;2.00;;;;;;;12.25;56.94;100020.00;5001444;28;20116;-41
2023/04/13 08:33:50;;;;;;;12.20;1.90;;;;;;;12.37;57.79;100017.31;5001613;28;20408;-42
2023/04/13 08:36:16;;;;;;;12.75;2.00;;;;;;;12.66;56.20;100021.44;4997965;28;20075;-43
2023/04/13 08:38:41;;;;;;;13.98;1.95;;;;;;;12.61;55.79;100037.16;5002239;28;20133;-42
2023/04/13 08:41:08;;;;;;;17.33;2.03;;;;;;;12.69;55.75;100030.09;4998642;28;20049;-43
2023/04/13 08:43:37;;;;;;;15.65;2.20;;;;;;;13.01;54.94;100042.88;5003930;28;20094;-42
2023/04/13 08:46:06;;;;;;;13.73;1.80;;;;;;;12.24;54.69;100052.25;5001770;28;20124;-43
2023/04/13 08:48:43;;;;;;;7.53;1.90;;;;;;;12.65;54.83;100031.03;5004226;28;20327;-43
2023/04/13 08:51:09;;;;;;;13.57;2.47;;;;;;;13.29;53.32;100052.25;5000932;28;20126;-41
2023/04/13 08:53:34;;;;;;;10.15;1.92;;;;;;;12.97;53.68;100049.91;5005672;28;20102;-40
2023/04/13 08:56:02;;;;;;;13.55;2.10;;;;;;;12.35;55.25;100055.66;5000402;28;20443;-40
2023/04/13 08:58:32;;;;;;;10.98;2.05;;;;;;;13.14;54.06;100055.00;5002589;28;20038;-41
2023/04/13 09:00:58;;;;;;;12.68;1.67;;;;;;;13.33;54.27;100067.03;5002135;28;20075;-42
2023/04/13 09:03:24;;;;;;;11.60;2.45;;;;;;;13.21;53.47;100066.28;4997215;28;20061;-41
2023/04/13 09:06:00;;;;;;;10.45;1.90;;;;;;;13.00;53.64;100068.19;5001172;28;20588;-41
2023/04/13 09:08:33;;;;;;;9.43;2.20;;;;;;;13.23;54.53;100073.25;4999612;28;20060;-42
2023/04/13 09:10:59;;;;;;;13.32;2.00;;;;;;;13.25;53.74;100086.31;4999672;28;20030;-41
2023/04/13 09:13:24;;;;;;;10.98;1.70;;;;;;;13.45;53.19;100096.56;5001356;28;20416;-45
2023/04/13 09:15:50;;;;;;;13.18;2.00;;;;;;;13.41;52.39;100090.53;5004639;28;20068;-41
2023/04/13 09:18:16;;;;;;;12.30;2.10;;;;;;;12.97;54.15;100078.69;5001649;28;20510;-43
2023/04/13 09:20:41;;;;;;;10.57;1.80;;;;;;;12.67;52.49;100099.00;5004072;28;20088;-42
2023/04/13 09:23:14;;;;;;;13.27;2.25;;;;;;;12.22;53.62;100097.53;4997924;28;20034;-38
2023/04/13 09:25:40;;;;;;;14.32;1.88;;;;;;;12.42;54.19;100108.75;5001450;28;20038;-40
2023/04/13 09:28:07;;;;;;;13.25;2.10;;;;;;;12.64;55.49;100109.47;4999056;28;20492;-42
2023/04/13 09:30:33;;;;;;;13.90;1.95;;;;;;;12.77;54.49;100117.22;5002647;28;20454;-41
2023/04/13 09:33:08;;;;;;;9.88;1.90;;;;;;;12.75;53.63;100116.34;5003573;28;20035;-41
2023/04/13 09:35:35;;;;;;;12.70;2.00;;;;;;;12.80;54.57;100124.19;5001631;28;20095;-43
2023/04/13 09:38:01;;;;;;;15.15;2.28;;;;;;;13.23;54.80;100143.94;4998452;28;20038;-41
2023/04/13 09:40:27;;;;;;;9.77;1.85;;;;;;;12.92;54.17;100139.78;5002362;28;20211;-41
2023/04/13 09:43:00;;;;;;;14.20;2.13;;;;;;;12.76;53.71;100136.41;5002084;28;20121;-43
2023/04/13 09:45:36;;;;;;;12.13;2.03;;;;;;;13.38;52.82;100142.91;4999078;28;20042;-41
2023/04/13 09:48:04;;;;;;;9.93;2.00;;;;;;;13.27;53.41;100150.00;4999847;28;20030;-45
2023/04/13 09:50:32;;;;;;;11.82;2.22;;;;;;;13.47;51.96;100148.06;5005672;28;20033;-43
2023/04/13 09:53:05;;;;;;;10.48;2.10;;;;;;;13.31;52.60;100165.66;5007185;28;20029;-41
2023/04/13 09:55:32;;;;;;;11.93;2.00;;;;;;;13.29;52.50;100177.03;5005692;28;20037;-41
2023/04/13 09:58:13;;;;;;;12.40;2.13;;;;;;;13.07;53.54;100172.81;5007145;28;20036;-43
2023/04/13 10:00:41;;;;;;;12.75;2.30;;;;;;;13.58;51.82;100177.63;5005948;28;20054;-42
2023/04/13 10:03:12;;;;;;;11.23;2.20;;;;;;;13.12;51.46;100171.91;5003474;28;20296;-40
2023/04/13 10:05:37;;;;;;;10.57;1.90;;;;;;;13.01;50.72;100177.22;5006586;28;20072;-40
2023/04/13 10:08:05;;;;;;;9.63;1.90;;;;;;;13.28;51.28;100177.91;5003357;28;20433;-42
2023/04/13 10:10:31;;;;;;;12.48;1.90;;;;;;;13.95;50.33;100196.44;5006801;28;20030;-42
2023/04/13 10:13:00;;;;;;;14.52;2.05;;;;;;;14.16;50.13;100198.81;5006213;28;20083;-41
2023/04/13 10:15:43;;;;;;;12.35;2.10;;;;;;;13.93;50.08;100207.81;5003342;28;20052;-42
2023/04/13 10:18:20;;;;;;;13.80;2.22;;;;;;;13.65;50.41;100209.88;5002067;28;20029;-42
2023/04/13 10:20:48;;;;;;;10.63;2.03;;;;;;;13.08;52.03;100229.50;5005507;28;20042;-40
2023/04/13 10:23:14;;;;;;;12.10;1.90;;;;;;;13.03;50.39;100221.69;5004340;28;20061;-45
2023/04/13 10:25:53;;;;;;;10.20;2.08;;;;;;;13.28;50.59;100220.66;5006245;28;20073;-41
2023/04/13 10:28:18;;;;;;;11.60;2.17;;;;;;;12.77;51.54;100229.69;5000736;28;20034;-40
2023/04/13 10:30:49;;;;;;;10.07;1.83;;;;;;;12.76;51.88;100235.78;5004545;28;20037;-44
2023/04/13 10:33:14;;;;;;;9.50;2.00;;;;;;;13.05;51.13;100238.25;5000819;28;20029;-40
2023/04/13 10:35:40;;;;;;;10.27;2.10;;;;;;;13.21;51.02;100239.03;5004074;28;20036;-42
2023/04/13 10:38:07;;;;;;;13.05;1.80;;;;;;;13.48;50.31;100251.06;5000834;28;20125;-42
2023/04/13 10:40:46;;;;;;;10.15;2.03;;;;;;;13.08;51.94;100246.06;5004036;28;20511;-42
2023/04/13 10:43:22;;;;;;;17.98;2.00;;;;;;;12.83;52.12;100247.97;5000222;28;20034;-41
2023/04/13 10:45:48;;;;;;;11.75;2.10;;;;;;;12.84;52.31;100254.94;5003878;28;20148;-41
2023/04/13 10:48:22;;;;;;;12.02;2.20;;;;;;;13.32;51.51;100268.63;5000282;28;20038;-42
2023/04/13 10:50:57;;;;;;;8.55;1.95;;;;;;;13.81;49.74;100269.06;5003745;28;20034;-41
2023/04/13 10:53:24;;;;;;;13.43;2.08;;;;;;;14.06;48.59;100273.19;5000493;28;20516;-42
2023/04/13 10:55:49;;;;;;;17.85;2.45;;;;;;;13.34;51.21;100290.44;5003134;28;20057;-45
2023/04/13 10:58:16;;;;;;;12.68;2.30;;;;;;;13.82;50.75;100284.78;5000113;28;20124;-43
2023/04/13 11:00:43;;;;;;;17.30;2.30;;;;;;;12.83;51.83;100289.81;5003492;28;20029;-43
2023/04/13 11:03:09;;;;;;;14.13;2.13;;;;;;;13.24;51.52;100305.31;5000110;28;20116;-44
2023/04/13 11:05:34;;;;;;;15.55;2.28;;;;;;;13.35;51.92;100310.50;5004034;28;20122;-40
2023/04/13 11:08:00;;;;;;;15.73;2.03;;;;;;;12.84;51.20;100299.41;4999811;28;20042;-39
2023/04/13 11:10:27;;;;;;;13.50;1.88;;;;;;;13.00;50.93;100306.28;5003611;28;20456;-41
2023/04/13 11:12:54;;;;;;;11.25;1.90;;;;;;;13.18;50.69;100315.81;5003207;28;20034;-43
2023/04/13 11:15:20;;;;;;;9.57;1.70;;;;;;;12.72;50.25;100309.94;5000095;28;20347;-44
2023/04/13 11:17:54;;;;;;;12.57;2.00;;;;;;;12.79;50.86;100318.63;5002917;28;20049;-41
2023/04/13 11:20:30;;;;;;;15.55;2.08;;;;;;;12.87;51.26;100327.28;4999916;28;20457;-40
2023/04/13 11:22:56;;;;;;;9.68;2.05;;;;;;;12.78;50.30;100322.13;5007061;28;20048;-43
2023/04/13 11:25:22;;;;;;;10.50;1.80;;;;;;;13.44;49.54;100328.75;5003299;28;20033;-44
2023/04/13 11:28:03;;;;;;;9.25;1.77;;;;;;;13.46;49.17;100323.50;5003197;28;20034;-44